HAZ807 ZGSZ-RCTP
Flight info
| Callsign | HAZ807 |
|---|---|
| Flight time | N/A |
| Altitude | 35100 |
| Route | OVGOT1 OVGOT R200 EXTRA M750 TONGA TONG1A |
| Aircraft | A346/H-SDE2E3FGHIJ3J4J5M1RWXY/LB1D1 |
Departure
| Time | 2026-05-06 07:44 |
|---|---|
| Airport | Shenzhen Bao'an International Airport (ZGSZ) |
Arrival
| Time | N/A |
|---|---|
| Airport | Taiwan Taoyuan International Airport (RCTP) |
| Time | Latitude | Longitude | Altitude | Speed | Heading |
|---|---|---|---|---|---|
| 2026-05-06 07:25 | 22.62806 | 113.80503 | 30 ft | 0 kts | 132° |
| 2026-05-06 07:33 | 22.62813 | 113.80496 | 31 ft | 2 kts | 132° |
| 2026-05-06 07:34 | 22.62823 | 113.80483 | 30 ft | 2 kts | 132° |
| 2026-05-06 07:34 | 22.62833 | 113.80471 | 30 ft | 2 kts | 142° |
| 2026-05-06 07:34 | 22.62847 | 113.80463 | 31 ft | 2 kts | 164° |
| 2026-05-06 07:34 | 22.62861 | 113.80461 | 31 ft | 2 kts | 180° |
| 2026-05-06 07:35 | 22.62876 | 113.80463 | 30 ft | 2 kts | 197° |
| 2026-05-06 07:35 | 22.62890 | 113.80469 | 31 ft | 2 kts | 214° |
| 2026-05-06 07:35 | 22.62897 | 113.80475 | 31 ft | 1 kts | 224° |
| 2026-05-06 07:35 | 22.62899 | 113.80477 | 31 ft | 0 kts | 224° |
| 2026-05-06 07:36 | 22.62896 | 113.80475 | 30 ft | 1 kts | 224° |
| 2026-05-06 07:36 | 22.62876 | 113.80454 | 30 ft | 6 kts | 223° |
| 2026-05-06 07:37 | 22.62834 | 113.80412 | 30 ft | 10 kts | 223° |
| 2026-05-06 07:37 | 22.62777 | 113.80354 | 30 ft | 11 kts | 230° |
| 2026-05-06 07:37 | 22.62781 | 113.80279 | 30 ft | 11 kts | 314° |
| 2026-05-06 07:37 | 22.62859 | 113.80228 | 31 ft | 14 kts | 334° |
| 2026-05-06 07:38 | 22.62955 | 113.80177 | 30 ft | 16 kts | 333° |
| 2026-05-06 07:38 | 22.63060 | 113.80117 | 30 ft | 17 kts | 332° |
| 2026-05-06 07:38 | 22.63174 | 113.80057 | 30 ft | 18 kts | 334° |
| 2026-05-06 07:38 | 22.63282 | 113.79997 | 30 ft | 20 kts | 332° |
| 2026-05-06 07:39 | 22.63409 | 113.79926 | 30 ft | 21 kts | 334° |
| 2026-05-06 07:39 | 22.63546 | 113.79854 | 30 ft | 22 kts | 333° |
| 2026-05-06 07:39 | 22.63649 | 113.79788 | 30 ft | 13 kts | 307° |
| 2026-05-06 07:39 | 22.63679 | 113.79691 | 30 ft | 14 kts | 307° |
| 2026-05-06 07:40 | 22.63763 | 113.79623 | 30 ft | 15 kts | 333° |
| 2026-05-06 07:40 | 22.63868 | 113.79569 | 30 ft | 17 kts | 332° |
| 2026-05-06 07:40 | 22.63976 | 113.79511 | 30 ft | 18 kts | 333° |
| 2026-05-06 07:40 | 22.64093 | 113.79446 | 30 ft | 20 kts | 333° |
| 2026-05-06 07:41 | 22.64222 | 113.79376 | 30 ft | 22 kts | 333° |
| 2026-05-06 07:41 | 22.64379 | 113.79288 | 30 ft | 26 kts | 333° |
| 2026-05-06 07:41 | 22.64544 | 113.79198 | 30 ft | 27 kts | 333° |
| 2026-05-06 07:41 | 22.64715 | 113.79105 | 30 ft | 26 kts | 334° |
| 2026-05-06 07:42 | 22.64883 | 113.79013 | 30 ft | 27 kts | 333° |
| 2026-05-06 07:42 | 22.65056 | 113.78917 | 30 ft | 27 kts | 333° |
| 2026-05-06 07:42 | 22.65194 | 113.78842 | 30 ft | 21 kts | 333° |
| 2026-05-06 07:42 | 22.65333 | 113.78762 | 30 ft | 23 kts | 332° |
| 2026-05-06 07:43 | 22.65465 | 113.78691 | 30 ft | 14 kts | 327° |
| 2026-05-06 07:43 | 22.65484 | 113.78597 | 30 ft | 14 kts | 248° |
| 2026-05-06 07:43 | 22.65422 | 113.78515 | 30 ft | 14 kts | 192° |
| 2026-05-06 07:43 | 22.65313 | 113.78558 | 30 ft | 32 kts | 153° |
| 2026-05-06 07:44 | 22.64867 | 113.78804 | 31 ft | 107 kts | 152° |
| 2026-05-06 07:44 | 22.63998 | 113.79282 | 31 ft | 168 kts | 154° |
| 2026-05-06 07:44 | 22.62849 | 113.79911 | 330 ft | 192 kts | 153° |
| 2026-05-06 07:44 | 22.61628 | 113.80515 | 966 ft | 196 kts | 161° |
| 2026-05-06 07:45 | 22.60323 | 113.80787 | 1783 ft | 194 kts | 174° |
| 2026-05-06 07:45 | 22.58950 | 113.80864 | 2374 ft | 205 kts | 174° |
| 2026-05-06 07:45 | 22.57455 | 113.81055 | 2852 ft | 222 kts | 172° |